Airfield :
LOGIN :

Register | Disclaimer

   EN    FR    IT 

 










Legend :    VFR   Marginal VFR   IFR   Intensive IFR   Very Intensive IFR
Visi :
Ceiling :
>= 8 km
>= 3000ft
5 to 8 km
1000 to 3000 ft
1500m to 5 km
500 to 1000 ft
800 to 1500m
200 to 500 ft
< 800m
< 200 ft
Symbols :   Thunderstorms  Fog  Heavy snow  Heavy precipitations  Wind > 20 kt
SIGMETs :     Misc.  Thunderstorms  Icing  Turbulence  Mountain Waves  Volcanic Ashes






- Airport Elevation : -15 ft
- IATA code : RTM


EHRD - Rotterdam Zestienhoven

CURRENT METAR :
  • 230025Z AUTO 26004KT 9999 FEW048 07/04 Q1024 NOSIG

EXPIRED METARs :
  • 222355Z AUTO 28004KT 240V310 9999 NSC 08/05 Q1024 NOSIG
  • 222325Z AUTO 31004KT 280V340 9999 NSC 08/06 Q1024 NOSIG
  • 222255Z AUTO 28004KT 250V310 9999 BKN041 BKN047 09/07 Q1023 NOSIG
  • 222225Z AUTO 26004KT 9999 FEW037 SCT044 OVC049 08/07 Q1023 NOSIG
  • 222155Z AUTO 25004KT 9999 FEW045 OVC049 07/06 Q1023 NOSIG

TAF TAF EHRD
Valid from the 23 at 00:00 until the 24 at 06:00 UTC


222310Z 2300/2406 20005KT 9999 SCT030



MET'MAP, your aeronautical weather chart ! - Copyright ORBIFLY December 2007 - Disclaimer

ORBIFLY MET'MAP TEAM :

Programming & Development : Alexandra Zaïnal
Concept & original design : Baudouin d'Aumeries
Assistance for programming : Marc-Olivier Méhu
Technical & hardware support : Manuel Goepfert

Contact : metmap@orbifly.com




SOURCES & CREDITS :

   NOAA